Time;durP1;ratioP1;P1;durP2;ratioP2;P2;SDS_P1;SDS_P2;PMS_P1;PMS_P2;Temp;Humidity;BMP_temperature;BMP_pressure;BME280_temperature;BME280_humidity;BME280_pressure;Samples;Min_cycle;Max_cycle;Signal;HPM_P1;HPM_P2
2023/05/03 00:00:31;;;;;;;18.98;13.85;;;;;;;12.91;67.30;99115.34;5018850;28;20107;-73
2023/05/03 00:02:57;;;;;;;18.48;12.73;;;;;;;12.90;67.04;99114.56;5010108;28;20018;-74
2023/05/03 00:05:24;;;;;;;20.67;14.68;;;;;;;12.89;67.25;99112.06;5009520;28;20487;-73
2023/05/03 00:07:49;;;;;;;22.95;15.73;;;;;;;12.86;67.63;99112.66;5009587;28;20030;-74
2023/05/03 00:10:15;;;;;;;21.90;15.93;;;;;;;12.85;67.63;99114.63;4991865;28;20086;-73
2023/05/03 00:12:42;;;;;;;25.67;16.70;;;;;;;12.83;67.56;99119.59;5008906;28;20022;-72
2023/05/03 00:15:08;;;;;;;26.40;17.45;;;;;;;12.84;67.48;99118.47;5009433;28;20037;-74
2023/05/03 00:17:34;;;;;;;29.98;18.33;;;;;;;12.81;67.75;99113.56;5009507;28;20026;-73
2023/05/03 00:20:00;;;;;;;30.77;17.88;;;;;;;12.83;67.82;99118.78;5009334;28;20111;-74
2023/05/03 00:22:25;;;;;;;30.98;17.92;;;;;;;12.82;67.38;99109.69;5009139;28;20151;-73
2023/05/03 00:24:51;;;;;;;30.83;18.55;;;;;;;12.80;67.73;99106.41;5019545;28;20026;-73
2023/05/03 00:27:18;;;;;;;29.90;17.67;;;;;;;12.83;67.68;99113.28;5076763;28;20025;-74
2023/05/03 00:29:44;;;;;;;27.92;16.67;;;;;;;12.80;67.71;99110.00;5009051;28;20033;-73
2023/05/03 00:32:09;;;;;;;26.17;16.75;;;;;;;12.82;67.64;99109.69;5008894;28;20036;-74
2023/05/03 00:34:36;;;;;;;25.17;16.20;;;;;;;12.82;68.00;99104.19;5006369;28;20029;-73
2023/05/03 00:37:01;;;;;;;22.30;14.63;;;;;;;12.83;67.77;99107.78;5009154;28;20068;-73
2023/05/03 00:39:30;;;;;;;21.70;14.80;;;;;;;12.82;67.89;99109.69;5008867;28;20468;-73
2023/05/03 00:42:00;;;;;;;21.17;14.35;;;;;;;12.83;67.96;99107.78;5006418;28;20025;-73
2023/05/03 00:44:26;;;;;;;17.02;12.75;;;;;;;12.83;67.94;99100.31;5021050;28;20243;-74
2023/05/03 00:46:51;;;;;;;17.15;12.85;;;;;;;12.85;67.85;99113.78;5008903;28;20109;-74
2023/05/03 00:49:18;;;;;;;16.05;12.02;;;;;;;12.85;67.82;99105.53;5008901;28;20022;-73
2023/05/03 00:51:43;;;;;;;15.85;11.93;;;;;;;12.85;67.53;99111.88;5008821;28;20025;-74
2023/05/03 00:54:10;;;;;;;14.93;11.13;;;;;;;12.86;67.80;99109.91;5008741;28;20383;-69
2023/05/03 00:56:37;;;;;;;13.77;10.27;;;;;;;12.86;67.51;99104.41;4991054;28;20026;-73
2023/05/03 00:59:04;;;;;;;13.18;10.23;;;;;;;12.87;67.94;99100.53;5008669;28;20106;-72
2023/05/03 01:01:31;;;;;;;12.95;9.95;;;;;;;12.86;67.66;99101.66;5008897;28;20383;-73
2023/05/03 01:03:59;;;;;;;13.70;10.13;;;;;;;12.87;67.73;99112.38;5008367;28;20560;-71
2023/05/03 01:06:38;;;;;;;14.25;9.43;;;;;;;12.86;67.81;99110.75;5008530;28;20022;-72
2023/05/03 01:09:29;;;;;;;12.47;9.10;;;;;;;12.86;67.65;99113.50;5008655;28;20022;-71
2023/05/03 01:12:10;;;;;;;12.57;9.02;;;;;;;12.86;67.71;99112.66;5006347;28;20092;-72
2023/05/03 01:14:45;;;;;;;11.00;8.13;;;;;;;12.88;67.71;99121.44;5007871;28;20121;-72
2023/05/03 01:17:14;;;;;;;11.05;8.65;;;;;;;12.87;67.48;99119.81;5008609;28;20030;-72
2023/05/03 01:19:53;;;;;;;11.73;9.02;;;;;;;12.86;67.50;99121.75;5008541;28;20357;-72
2023/05/03 01:22:44;;;;;;;11.13;8.63;;;;;;;12.85;67.98;99117.38;5008665;28;20022;-72
2023/05/03 01:25:11;;;;;;;11.90;9.05;;;;;;;12.85;67.80;99122.88;4997240;28;20031;-72
2023/05/03 01:27:38;;;;;;;14.07;9.73;;;;;;;12.84;68.01;99114.94;5011789;28;20075;-72
2023/05/03 01:30:05;;;;;;;13.15;9.38;;;;;;;12.85;67.57;99119.28;5011848;28;20378;-72
2023/05/03 01:32:43;;;;;;;14.20;10.00;;;;;;;12.84;67.86;99123.19;5011944;28;20018;-73
2023/05/03 01:35:27;;;;;;;22.73;13.93;;;;;;;12.84;67.55;99121.22;4992460;28;20026;-74
2023/05/03 01:37:56;;;;;;;22.08;15.43;;;;;;;12.85;67.99;99122.88;5010686;28;20042;-73
2023/05/03 01:40:22;;;;;;;24.88;14.98;;;;;;;12.83;68.01;99119.59;4991965;28;20661;-73
2023/05/03 01:42:49;;;;;;;26.60;17.42;;;;;;;12.84;67.86;99120.44;4993356;28;20032;-73
2023/05/03 01:45:15;;;;;;;22.33;14.88;;;;;;;12.84;67.87;99120.44;5010521;28;20033;-73
2023/05/03 01:47:40;;;;;;;21.95;15.15;;;;;;;12.84;67.75;99120.44;4991281;28;20018;-73
2023/05/03 01:50:06;;;;;;;14.70;11.00;;;;;;;12.85;67.99;99119.28;5008767;28;20018;-73
2023/05/03 01:52:32;;;;;;;16.38;11.50;;;;;;;12.85;67.86;99117.38;4993967;28;20064;-73
2023/05/03 01:54:58;;;;;;;15.10;11.07;;;;;;;12.86;67.93;99123.69;5011694;28;20365;-73
2023/05/03 01:57:24;;;;;;;17.70;11.48;;;;;;;12.85;68.25;99124.78;5011695;28;20097;-74
2023/05/03 01:59:49;;;;;;;16.17;10.40;;;;;;;12.85;68.04;99124.78;5011928;28;20109;-73
2023/05/03 02:02:15;;;;;;;16.85;12.45;;;;;;;12.83;68.26;99125.09;5011807;28;20079;-73
2023/05/03 02:04:41;;;;;;;17.48;11.60;;;;;;;12.80;68.17;99121.00;5083700;28;20039;-73
2023/05/03 02:07:07;;;;;;;18.23;12.82;;;;;;;12.84;68.17;99125.94;5115477;28;20073;-73
2023/05/03 02:09:32;;;;;;;15.55;12.05;;;;;;;12.83;68.13;99118.78;5115169;28;20027;-73
2023/05/03 02:11:58;;;;;;;18.55;13.20;;;;;;;12.84;68.08;99123.19;5115254;28;20027;-73
2023/05/03 02:14:23;;;;;;;17.50;12.25;;;;;;;12.82;68.01;99125.41;5114874;28;20050;-73
2023/05/03 02:16:49;;;;;;;15.95;11.95;;;;;;;12.77;67.62;99121.59;5115065;28;20025;-73
2023/05/03 02:19:14;;;;;;;15.27;11.23;;;;;;;12.75;67.82;99121.06;5096700;28;20076;-73
2023/05/03 02:21:40;;;;;;;15.30;10.25;;;;;;;12.73;68.21;99112.28;5114975;28;20100;-73
2023/05/03 02:24:05;;;;;;;16.48;11.35;;;;;;;12.71;67.84;99121.94;5096563;28;20065;-73
2023/05/03 02:26:31;;;;;;;16.27;11.20;;;;;;;12.70;67.92;99125.81;5114927;28;20075;-74
2023/05/03 02:28:57;;;;;;;17.02;11.85;;;;;;;12.66;68.29;99131.91;5096567;28;20492;-74
2023/05/03 02:31:22;;;;;;;19.88;12.13;;;;;;;12.65;68.18;99134.94;5115060;28;20095;-74
2023/05/03 02:33:48;;;;;;;19.30;12.68;;;;;;;12.62;68.39;99133.63;5114677;28;20545;-74
2023/05/03 02:36:13;;;;;;;18.45;13.02;;;;;;;12.59;68.45;99128.69;5114300;28;20061;-74
2023/05/03 02:38:39;;;;;;;19.65;12.73;;;;;;;12.59;68.59;99136.13;5114923;28;20135;-74
2023/05/03 02:41:04;;;;;;;17.23;12.55;;;;;;;12.57;68.22;99132.84;5114572;28;20023;-74
2023/05/03 02:43:30;;;;;;;17.38;12.45;;;;;;;12.57;68.09;99136.44;5114262;28;20035;-74
2023/05/03 02:45:56;;;;;;;19.92;13.70;;;;;;;12.57;68.42;99130.94;5114557;28;20031;-74
2023/05/03 02:48:21;;;;;;;19.23;13.68;;;;;;;12.60;68.44;99137.75;5096145;28;20080;-74
2023/05/03 02:50:46;;;;;;;18.02;13.32;;;;;;;12.61;68.50;99139.41;5114347;28;20032;-74
2023/05/03 02:53:12;;;;;;;18.40;13.70;;;;;;;12.62;68.48;99138.28;5114442;28;20625;-74
2023/05/03 02:55:38;;;;;;;17.90;13.63;;;;;;;12.62;68.86;99138.28;5114163;28;20036;-74
2023/05/03 02:58:03;;;;;;;18.45;13.32;;;;;;;12.63;68.94;99148.19;5114459;28;20054;-73
2023/05/03 03:00:29;;;;;;;19.77;14.10;;;;;;;12.65;68.97;99143.22;5114139;28;20031;-74
2023/05/03 03:02:54;;;;;;;16.92;13.13;;;;;;;12.65;68.96;99154.22;5113961;28;20103;-73
2023/05/03 03:05:20;;;;;;;18.08;12.90;;;;;;;12.64;69.14;99152.56;5113857;28;20500;-73
2023/05/03 03:07:45;;;;;;;18.17;13.30;;;;;;;12.65;68.92;99155.03;5114292;28;20059;-73
2023/05/03 03:10:11;;;;;;;19.50;13.52;;;;;;;12.64;68.75;99158.09;5113906;28;20047;-74
2023/05/03 03:12:37;;;;;;;20.05;14.45;;;;;;;12.61;68.77;99165.00;5114007;28;20031;-74
2023/05/03 03:15:03;;;;;;;18.35;13.55;;;;;;;12.61;69.22;99156.75;5113743;28;20088;-73
2023/05/03 03:17:29;;;;;;;19.75;13.85;;;;;;;12.58;69.38;99160.09;5113828;28;20465;-73
2023/05/03 03:19:54;;;;;;;19.40;13.75;;;;;;;12.56;69.19;99155.97;5071713;28;20030;-74
2023/05/03 03:22:20;;;;;;;19.45;13.90;;;;;;;12.55;69.28;99155.16;5010916;28;20030;-74
2023/05/03 03:24:45;;;;;;;18.35;14.13;;;;;;;12.55;69.54;99159.81;5010465;28;20061;-73
2023/05/03 03:27:11;;;;;;;18.17;14.57;;;;;;;12.52;69.32;99158.50;5010503;28;20109;-74
2023/05/03 03:29:36;;;;;;;18.52;14.15;;;;;;;12.51;69.53;99160.41;4992862;28;20022;-73
2023/05/03 03:32:01;;;;;;;17.63;13.85;;;;;;;12.48;69.68;99163.75;5010526;28;20049;-74
2023/05/03 03:34:27;;;;;;;18.63;14.02;;;;;;;12.43;69.79;99158.28;5010275;28;20114;-74
2023/05/03 03:36:52;;;;;;;18.25;13.63;;;;;;;12.42;69.38;99158.59;5010160;28;20030;-74
2023/05/03 03:39:18;;;;;;;18.33;13.45;;;;;;;12.38;69.72;99163.03;5010339;28;20447;-74
2023/05/03 03:41:43;;;;;;;18.05;13.73;;;;;;;12.35;69.62;99159.75;5010409;28;20087;-74
2023/05/03 03:44:09;;;;;;;17.08;13.98;;;;;;;12.32;69.71;99165.03;5010139;28;20037;-74
2023/05/03 03:46:34;;;;;;;17.75;13.98;;;;;;;12.30;70.02;99164.50;5010277;28;20026;-74
2023/05/03 03:48:59;;;;;;;16.70;13.68;;;;;;;12.28;69.98;99173.03;5009300;28;20029;-74
2023/05/03 03:51:25;;;;;;;17.65;13.43;;;;;;;12.27;69.86;99168.63;4992700;28;20525;-73
2023/05/03 03:53:51;;;;;;;17.02;12.77;;;;;;;12.26;70.21;99169.75;5040998;28;20108;-73
2023/05/03 03:56:17;;;;;;;15.45;12.25;;;;;;;12.26;69.94;99177.19;5113044;28;20042;-74
2023/05/03 03:58:42;;;;;;;16.27;12.60;;;;;;;12.28;69.96;99183.22;5034583;28;20156;-73
2023/05/03 04:01:07;;;;;;;17.58;13.35;;;;;;;12.26;70.42;99179.94;5010013;28;20030;-73
2023/05/03 04:03:33;;;;;;;19.50;14.52;;;;;;;12.24;70.17;99182.97;5010071;28;20148;-73
2023/05/03 04:05:58;;;;;;;17.15;13.90;;;;;;;12.23;69.90;99186.00;5009945;28;20030;-73
2023/05/03 04:08:24;;;;;;;18.40;14.40;;;;;;;12.22;69.97;99185.22;5009832;28;20036;-74
2023/05/03 04:10:49;;;;;;;18.90;14.45;;;;;;;12.20;70.19;99181.94;5009553;28;20026;-73
2023/05/03 04:13:15;;;;;;;19.75;14.63;;;;;;;12.19;70.78;99191.28;5009836;28;20032;-73
2023/05/03 04:15:40;;;;;;;20.00;15.25;;;;;;;12.17;70.25;99191.56;5009605;28;20033;-73
2023/05/03 04:18:06;;;;;;;22.40;16.27;;;;;;;12.15;70.32;99201.22;5009795;28;20030;-74
2023/05/03 04:20:32;;;;;;;21.83;16.45;;;;;;;12.16;70.69;99206.41;5009665;28;20010;-74
2023/05/03 04:22:59;;;;;;;21.95;16.13;;;;;;;12.17;70.99;99201.75;5009659;28;20100;-74
2023/05/03 04:25:24;;;;;;;19.40;15.02;;;;;;;12.16;70.47;99211.91;5009620;28;20056;-74
2023/05/03 04:27:50;;;;;;;21.88;16.30;;;;;;;12.17;70.68;99210.81;5100361;28;20057;-73
2023/05/03 04:30:16;;;;;;;19.42;15.73;;;;;;;12.14;70.61;99216.88;5112587;28;20038;-73
2023/05/03 04:32:41;;;;;;;18.10;13.77;;;;;;;12.13;70.77;99220.75;5112261;28;20022;-74
2023/05/03 04:35:09;;;;;;;17.08;13.43;;;;;;;12.11;71.57;99222.16;5112223;28;20035;-73
2023/05/03 04:37:38;;;;;;;16.88;12.80;;;;;;;12.05;71.30;99233.19;5111699;28;20020;-73
2023/05/03 04:40:11;;;;;;;16.23;12.25;;;;;;;12.05;70.79;99229.59;5112316;28;20028;-73
2023/05/03 04:42:37;;;;;;;14.45;11.63;;;;;;;11.98;70.80;99234.59;5112616;28;20026;-73
2023/05/03 04:45:03;;;;;;;15.07;10.65;;;;;;;11.94;71.17;99239.81;5041854;28;20038;-72
2023/05/03 04:47:29;;;;;;;15.75;10.45;;;;;;;11.93;70.97;99245.63;5009354;28;20026;-74
2023/05/03 04:49:54;;;;;;;14.55;10.35;;;;;;;11.90;70.90;99238.75;5009404;28;20025;-73
2023/05/03 04:52:20;;;;;;;14.00;10.32;;;;;;;11.86;70.67;99243.19;5009522;28;20377;-73
2023/05/03 04:54:46;;;;;;;14.05;9.98;;;;;;;11.85;70.72;99247.03;5009174;28;20113;-73
2023/05/03 04:57:12;;;;;;;12.02;9.27;;;;;;;11.82;70.90;99247.63;5009351;28;20049;-73
2023/05/03 04:59:37;;;;;;;13.48;9.80;;;;;;;11.80;70.83;99255.34;5010832;28;20029;-73
2023/05/03 05:02:02;;;;;;;12.93;8.98;;;;;;;11.77;71.38;99253.97;5012623;28;20034;-73
2023/05/03 05:04:28;;;;;;;12.48;8.32;;;;;;;11.72;70.68;99265.81;5012395;28;20053;-73
2023/05/03 05:06:53;;;;;;;13.02;8.52;;;;;;;11.69;70.94;99260.88;5012787;28;20090;-73
2023/05/03 05:09:23;;;;;;;13.07;8.65;;;;;;;11.66;70.38;99263.38;5012917;28;20061;-73
2023/05/03 05:11:49;;;;;;;9.85;7.45;;;;;;;11.63;70.54;99267.50;5012485;28;20402;-73
2023/05/03 05:14:14;;;;;;;14.63;7.45;;;;;;;11.60;70.72;99271.66;4994797;28;20041;-72
2023/05/03 05:16:40;;;;;;;9.80;7.25;;;;;;;11.56;70.67;99270.59;5011985;28;20034;-73
2023/05/03 05:19:06;;;;;;;9.02;6.88;;;;;;;11.54;70.36;99274.69;5012539;28;20026;-73
2023/05/03 05:21:31;;;;;;;9.13;6.50;;;;;;;11.51;70.54;99281.59;5012555;28;20053;-73
2023/05/03 05:23:56;;;;;;;9.23;6.63;;;;;;;11.47;70.51;99273.06;5012457;28;20360;-74
2023/05/03 05:26:22;;;;;;;9.18;6.32;;;;;;;11.45;70.74;99275.28;5012453;28;20022;-72
2023/05/03 05:28:47;;;;;;;9.88;6.57;;;;;;;11.44;70.75;99278.31;4994787;28;20067;-73
2023/05/03 05:31:14;;;;;;;8.82;6.18;;;;;;;11.43;70.21;99284.94;5012367;28;20026;-73
2023/05/03 05:33:39;;;;;;;8.10;5.75;;;;;;;11.44;70.91;99289.31;5097961;28;20030;-72
2023/05/03 05:36:05;;;;;;;10.52;5.88;;;;;;;11.44;70.52;99292.06;5115824;28;20481;-73
2023/05/03 05:38:30;;;;;;;7.70;6.07;;;;;;;11.45;70.27;99296.44;5115867;28;20039;-73
2023/05/03 05:40:56;;;;;;;11.20;6.05;;;;;;;11.46;70.09;99296.16;5116044;28;20023;-73
2023/05/03 05:43:21;;;;;;;8.73;5.90;;;;;;;11.48;70.32;99301.38;5115439;28;20628;-73
2023/05/03 05:45:47;;;;;;;9.82;6.20;;;;;;;11.51;70.43;99300.81;5115551;28;20423;-72
2023/05/03 05:48:13;;;;;;;9.95;5.85;;;;;;;11.51;70.47;99306.31;5114854;28;20393;-73
2023/05/03 05:50:38;;;;;;;9.85;5.68;;;;;;;11.51;70.42;99309.06;5115242;28;20044;-73
2023/05/03 05:53:05;;;;;;;6.78;4.90;;;;;;;11.48;70.26;99312.38;5115146;28;20098;-73
2023/05/03 05:55:30;;;;;;;8.98;5.47;;;;;;;11.47;69.86;99314.28;5115066;28;20039;-74
2023/05/03 05:57:56;;;;;;;9.32;5.25;;;;;;;11.45;69.62;99318.44;5115430;28;20023;-73
2023/05/03 06:00:21;;;;;;;8.77;5.38;;;;;;;11.45;69.84;99324.72;5115572;28;20039;-73
2023/05/03 06:02:47;;;;;;;6.90;5.03;;;;;;;11.45;69.48;99321.16;5115381;28;20473;-73
2023/05/03 06:05:13;;;;;;;8.15;5.28;;;;;;;11.43;70.19;99318.69;5059932;28;20400;-73
2023/05/03 06:07:38;;;;;;;9.07;5.20;;;;;;;11.41;69.73;99323.63;5011833;28;20032;-73
2023/05/03 06:10:04;;;;;;;7.25;5.25;;;;;;;11.40;69.46;99322.03;5011540;28;20555;-73
2023/05/03 06:12:30;;;;;;;9.63;5.15;;;;;;;11.39;69.42;99325.88;5032504;28;20517;-73
2023/05/03 06:14:56;;;;;;;9.40;5.18;;;;;;;11.35;69.77;99322.03;5114912;28;20135;-73
2023/05/03 06:17:22;;;;;;;8.25;4.60;;;;;;;11.29;69.30;99326.72;5115271;28;20042;-73
2023/05/03 06:19:48;;;;;;;9.10;4.60;;;;;;;11.28;69.64;99321.50;5115045;28;20470;-73
2023/05/03 06:22:14;;;;;;;7.38;4.78;;;;;;;11.27;69.88;99325.34;5116148;28;20058;-72
2023/05/03 06:24:39;;;;;;;6.68;4.82;;;;;;;11.22;69.62;99337.16;5116417;28;20032;-72
2023/05/03 06:27:05;;;;;;;7.03;4.88;;;;;;;11.20;69.57;99341.31;5114962;28;20046;-74
2023/05/03 06:29:30;;;;;;;7.93;5.03;;;;;;;11.19;69.74;99340.50;5062244;28;20364;-74
2023/05/03 06:31:56;;;;;;;9.77;5.43;;;;;;;11.20;69.82;99342.13;5011272;28;20033;-73
2023/05/03 06:34:21;;;;;;;7.38;5.35;;;;;;;11.22;70.04;99345.41;4993734;28;20100;-73
2023/05/03 06:36:48;;;;;;;8.27;5.20;;;;;;;11.23;69.96;99347.03;5011528;28;20030;-73
2023/05/03 06:39:13;;;;;;;7.20;4.93;;;;;;;11.22;69.72;99350.09;5011354;28;20030;-74
2023/05/03 06:41:39;;;;;;;10.05;5.53;;;;;;;11.22;70.14;99348.16;4993778;28;20029;-74
2023/05/03 06:44:06;;;;;;;13.18;8.60;;;;;;;11.25;69.59;99352.28;5011326;28;20485;-74
2023/05/03 06:46:32;;;;;;;8.50;5.07;;;;;;;11.25;69.88;99355.81;5011219;28;20123;-74
2023/05/03 06:48:57;;;;;;;9.10;4.97;;;;;;;11.28;69.84;99354.47;5011050;28;20034;-73
2023/05/03 06:51:27;;;;;;;6.68;5.20;;;;;;;11.29;69.77;99354.16;5011146;28;20041;-74
2023/05/03 06:54:00;;;;;;;8.13;5.72;;;;;;;11.30;69.63;99352.25;5072933;28;20020;-74
2023/05/03 06:56:27;;;;;;;11.23;5.75;;;;;;;11.32;69.58;99356.34;5114337;28;20058;-73
2023/05/03 06:58:53;;;;;;;8.50;5.30;;;;;;;11.35;69.89;99357.75;5114307;28;20027;-74
2023/05/03 07:01:19;;;;;;;9.15;5.18;;;;;;;11.37;69.33;99349.22;5114171;28;20023;-73
2023/05/03 07:03:45;;;;;;;8.52;5.40;;;;;;;11.40;69.48;99359.63;5113971;28;20063;-73
2023/05/03 07:06:11;;;;;;;8.57;5.28;;;;;;;11.43;69.57;99356.34;5114270;28;20067;-73
2023/05/03 07:08:36;;;;;;;9.07;5.40;;;;;;;11.46;69.34;99356.59;5114037;28;20065;-74
2023/05/03 07:11:03;;;;;;;8.77;5.43;;;;;;;11.50;69.15;99356.88;5113917;28;20106;-73
2023/05/03 07:13:28;;;;;;;8.07;5.55;;;;;;;11.53;69.58;99360.97;5095850;28;20087;-74
2023/05/03 07:15:54;;;;;;;7.05;4.78;;;;;;;11.56;69.16;99352.16;5039882;28;20109;-73
2023/05/03 07:18:19;;;;;;;8.30;5.13;;;;;;;11.62;69.28;99359.28;4993091;28;20065;-74
2023/05/03 07:20:45;;;;;;;9.25;5.40;;;;;;;11.62;69.62;99360.09;5009406;28;20052;-73
2023/05/03 07:23:10;;;;;;;9.63;4.93;;;;;;;11.61;68.85;99358.44;5009396;28;20028;-73
2023/05/03 07:25:38;;;;;;;9.10;4.82;;;;;;;11.64;68.94;99361.75;5010601;28;20054;-73
2023/05/03 07:28:03;;;;;;;10.75;5.35;;;;;;;11.64;69.15;99368.06;5010517;28;20025;-73
2023/05/03 07:30:29;;;;;;;7.63;4.65;;;;;;;11.67;68.65;99366.69;5010630;28;20124;-74
2023/05/03 07:32:54;;;;;;;9.52;5.35;;;;;;;11.66;68.79;99368.63;5010403;28;20105;-73
2023/05/03 07:35:20;;;;;;;10.73;5.10;;;;;;;11.68;68.51;99371.06;4992625;28;20061;-73
2023/05/03 07:37:45;;;;;;;8.90;4.68;;;;;;;11.69;69.13;99372.72;5010399;28;20037;-73
2023/05/03 07:40:11;;;;;;;7.97;4.68;;;;;;;11.70;68.90;99377.09;5010417;28;20096;-73
2023/05/03 07:42:36;;;;;;;7.97;4.70;;;;;;;11.71;69.09;99373.25;4992846;28;20395;-73
2023/05/03 07:45:02;;;;;;;9.02;5.18;;;;;;;11.72;69.06;99374.91;5010349;28;20022;-74
2023/05/03 07:47:27;;;;;;;8.05;4.70;;;;;;;11.69;68.36;99370.81;5010205;28;20094;-74
2023/05/03 07:49:53;;;;;;;10.10;4.53;;;;;;;11.65;68.64;99374.38;5024552;28;20397;-73
2023/05/03 07:52:19;;;;;;;8.60;5.43;;;;;;;11.65;68.73;99375.22;5113225;28;20035;-74
2023/05/03 07:54:44;;;;;;;8.90;4.63;;;;;;;11.64;68.71;99381.81;5112980;28;20034;-73
2023/05/03 07:57:15;;;;;;;8.82;4.90;;;;;;;11.61;68.22;99380.44;5113338;28;20023;-74
2023/05/03 07:59:41;;;;;;;9.68;5.28;;;;;;;11.59;68.12;99377.16;5113131;28;20776;-73
2023/05/03 08:02:06;;;;;;;10.55;5.20;;;;;;;11.59;67.85;99376.34;5094735;28;20106;-73
2023/05/03 08:04:31;;;;;;;7.28;4.95;;;;;;;11.62;68.34;99378.53;5112930;28;20196;-73
2023/05/03 08:07:01;;;;;;;8.02;5.00;;;;;;;11.62;68.40;99384.81;5112688;28;20035;-73
2023/05/03 08:09:27;;;;;;;9.95;5.28;;;;;;;11.65;68.44;99379.88;5112893;28;20031;-74
2023/05/03 08:11:53;;;;;;;9.38;4.93;;;;;;;11.68;67.87;99382.06;5087488;28;20038;-73
2023/05/03 08:14:19;;;;;;;7.60;4.95;;;;;;;11.70;67.94;99379.84;5008061;28;20026;-73
2023/05/03 08:16:44;;;;;;;8.27;4.78;;;;;;;11.73;67.76;99382.03;5008826;28;20106;-73
2023/05/03 08:19:10;;;;;;;12.80;6.07;;;;;;;11.76;67.74;99386.97;5008666;28;20387;-76
2023/05/03 08:21:35;;;;;;;9.98;5.28;;;;;;;11.79;67.96;99377.38;5008720;28;20083;-74
2023/05/03 08:24:00;;;;;;;12.13;6.20;;;;;;;11.83;67.55;99375.66;5008776;28;20032;-73
2023/05/03 08:26:27;;;;;;;10.15;6.07;;;;;;;11.88;68.12;99379.25;5008343;28;20395;-73
2023/05/03 08:28:53;;;;;;;14.63;7.03;;;;;;;11.97;68.10;99382.22;5011246;28;20061;-73
2023/05/03 08:31:18;;;;;;;10.82;5.80;;;;;;;12.03;67.42;99383.88;5008509;28;20022;-73
2023/05/03 08:33:44;;;;;;;10.20;6.50;;;;;;;12.09;67.91;99376.41;5008425;28;20030;-73
2023/05/03 08:36:09;;;;;;;11.85;6.47;;;;;;;12.14;67.69;99384.63;5008997;28;20087;-73
2023/05/03 08:38:35;;;;;;;8.90;5.50;;;;;;;12.16;67.34;99390.66;5008416;28;20022;-73
2023/05/03 08:41:22;;;;;;;8.90;5.55;;;;;;;12.14;67.39;99395.63;5008435;28;20298;-74
2023/05/03 08:43:52;;;;;;;10.15;5.72;;;;;;;12.18;67.08;99396.69;5008585;28;20397;-73
2023/05/03 08:46:17;;;;;;;9.70;5.43;;;;;;;12.21;67.04;99387.06;5008429;28;20488;-73
2023/05/03 08:48:49;;;;;;;8.38;5.13;;;;;;;12.19;66.79;99395.59;5008439;28;20071;-74
2023/05/03 08:51:18;;;;;;;9.45;6.43;;;;;;;12.20;66.47;99397.25;5008713;28;20459;-73
2023/05/03 08:53:44;;;;;;;8.63;6.47;;;;;;;12.26;66.98;99394.47;5008037;28;20057;-72
2023/05/03 08:56:14;;;;;;;10.25;6.80;;;;;;;12.33;66.45;99393.03;5008319;28;20044;-73
2023/05/03 08:58:40;;;;;;;13.63;6.80;;;;;;;12.35;66.68;99399.06;5008260;28;20028;-72
2023/05/03 09:01:07;;;;;;;11.65;6.85;;;;;;;12.35;66.42;99407.31;5008250;28;20540;-73
2023/05/03 09:03:34;;;;;;;11.30;6.80;;;;;;;12.38;66.21;99405.94;4990497;28;20106;-73
2023/05/03 09:06:01;;;;;;;14.57;9.50;;;;;;;12.42;66.39;99407.03;5007542;28;20125;-73
2023/05/03 09:08:27;;;;;;;14.48;8.02;;;;;;;12.46;65.95;99405.31;5008371;28;20030;-72
2023/05/03 09:10:52;;;;;;;13.45;7.55;;;;;;;12.50;65.92;99400.09;5008971;28;20026;-73
2023/05/03 09:13:18;;;;;;;11.77;7.07;;;;;;;12.56;65.81;99406.38;5008101;28;20033;-72
2023/05/03 09:15:52;;;;;;;10.07;6.03;;;;;;;12.59;65.41;99403.88;5008710;28;20038;-72
2023/05/03 09:18:18;;;;;;;10.23;6.05;;;;;;;12.61;65.30;99404.41;5008307;28;20527;-73
2023/05/03 09:20:52;;;;;;;12.38;6.03;;;;;;;12.63;65.34;99396.66;5008834;28;20034;-73
2023/05/03 09:23:27;;;;;;;11.63;6.47;;;;;;;12.67;64.85;99410.69;5008946;28;20031;-73
2023/05/03 09:25:53;;;;;;;10.57;6.22;;;;;;;12.72;65.15;99405.16;5009009;28;20074;-73
2023/05/03 09:28:19;;;;;;;9.10;5.60;;;;;;;12.77;65.09;99410.63;5008830;28;20352;-72
2023/05/03 09:30:46;;;;;;;8.32;6.20;;;;;;;12.79;64.59;99407.56;5008499;28;20022;-72
2023/05/03 09:33:19;;;;;;;12.20;5.90;;;;;;;12.83;64.78;99407.84;5008446;28;20108;-72
2023/05/03 09:36:00;;;;;;;7.95;5.13;;;;;;;12.84;64.27;99410.28;4991056;28;20043;-72
2023/05/03 09:38:30;;;;;;;7.93;4.80;;;;;;;12.84;64.59;99406.72;5008608;28;20030;-73
2023/05/03 09:40:56;;;;;;;9.65;5.00;;;;;;;12.87;64.25;99412.47;5008442;28;20029;-73
2023/05/03 09:43:22;;;;;;;9.18;5.53;;;;;;;12.84;63.83;99402.03;5006000;28;20087;-71
2023/05/03 09:45:47;;;;;;;9.10;5.38;;;;;;;12.89;63.98;99406.66;5007890;28;20484;-72
2023/05/03 09:48:13;;;;;;;10.85;5.80;;;;;;;12.89;63.63;99409.41;5011398;28;20045;-71
2023/05/03 09:50:39;;;;;;;15.82;9.20;;;;;;;12.90;63.35;99408.31;5011761;28;20074;-72
2023/05/03 09:53:06;;;;;;;11.95;6.50;;;;;;;12.91;63.06;99407.19;5010942;28;20384;-72
2023/05/03 09:55:37;;;;;;;10.32;6.80;;;;;;;12.93;63.35;99410.47;5010857;28;20033;-73
2023/05/03 09:58:06;;;;;;;11.40;6.22;;;;;;;12.99;63.12;99405.75;5011111;28;20049;-73
2023/05/03 10:00:39;;;;;;;19.17;9.13;;;;;;;13.02;63.01;99403.25;5011153;28;20491;-73
2023/05/03 10:03:09;;;;;;;18.08;9.45;;;;;;;13.06;62.82;99397.97;5011249;28;20775;-72
2023/05/03 10:05:48;;;;;;;24.63;15.38;;;;;;;13.09;63.06;99400.97;5010968;28;20070;-74
2023/05/03 10:08:38;;;;;;;16.33;9.63;;;;;;;13.14;62.79;99400.09;5011337;28;20516;-72
2023/05/03 10:11:06;;;;;;;9.60;6.32;;;;;;;13.17;62.27;99399.53;5012532;28;20391;-73
2023/05/03 10:13:32;;;;;;;11.95;9.43;;;;;;;13.19;62.33;99402.81;5011458;28;20026;-73
2023/05/03 10:16:12;;;;;;;15.27;7.82;;;;;;;13.22;61.99;99404.19;5011433;28;20049;-73
2023/05/03 10:19:02;;;;;;;18.38;8.10;;;;;;;13.23;62.00;99401.13;5011676;28;20025;-72
2023/05/03 10:21:55;;;;;;;18.77;10.80;;;;;;;13.28;62.06;99402.97;5011269;28;20386;-73
2023/05/03 10:24:21;;;;;;;22.25;10.50;;;;;;;13.36;61.83;99391.34;5011204;28;20030;-73
2023/05/03 10:26:49;;;;;;;19.40;9.07;;;;;;;13.43;61.53;99401.22;5011378;28;20026;-73
2023/05/03 10:29:36;;;;;;;20.40;7.95;;;;;;;13.49;61.56;99400.88;5011380;28;20100;-72
2023/05/03 10:32:03;;;;;;;15.93;7.72;;;;;;;13.59;61.58;99402.72;5011315;28;20073;-73
2023/05/03 10:34:34;;;;;;;13.65;7.68;;;;;;;13.64;61.05;99393.53;5010905;28;20038;-73
2023/05/03 10:37:08;;;;;;;19.50;9.48;;;;;;;13.68;60.43;99398.16;5011082;28;20353;-72
2023/05/03 10:39:34;;;;;;;9.52;5.68;;;;;;;13.67;60.42;99391.00;5010696;28;20049;-73
2023/05/03 10:42:06;;;;;;;12.23;6.70;;;;;;;13.72;60.42;99398.41;5009628;28;20468;-73
2023/05/03 10:44:52;;;;;;;10.15;6.50;;;;;;;13.75;60.33;99392.31;5011068;28;20030;-73
2023/05/03 10:47:23;;;;;;;11.93;6.18;;;;;;;13.82;60.35;99390.03;5011033;28;20032;-73
2023/05/03 10:50:10;;;;;;;9.25;5.95;;;;;;;13.89;60.31;99394.34;5010844;28;20520;-73
2023/05/03 10:52:38;;;;;;;8.98;5.35;;;;;;;13.95;60.05;99398.69;5009724;28;20036;-73
2023/05/03 10:55:12;;;;;;;9.75;5.70;;;;;;;14.03;60.07;99391.69;5009803;28;20053;-73
2023/05/03 10:57:43;;;;;;;12.65;8.88;;;;;;;14.15;60.23;99389.31;5010490;28;20038;-73
2023/05/03 11:00:12;;;;;;;10.50;7.65;;;;;;;14.28;60.04;99394.09;5010675;28;20026;-73
2023/05/03 11:02:56;;;;;;;;;;;;;;;14.39;60.34;99391.19;5010999;28;20509;-73
2023/05/03 11:05:24;;;;;;;11.10;7.18;;;;;;;14.44;59.43;99389.16;5010593;28;19924;-73
2023/05/03 11:07:50;;;;;;;7.35;4.85;;;;;;;14.48;59.57;99391.34;5010508;28;20395;-73
2023/05/03 11:10:18;;;;;;;8.02;5.00;;;;;;;14.47;59.18;99390.50;5010442;28;20030;-72
2023/05/03 11:12:44;;;;;;;8.43;4.65;;;;;;;14.48;58.51;99389.38;5009482;28;20172;-73
2023/05/03 11:15:11;;;;;;;9.35;5.15;;;;;;;14.50;58.48;99395.41;5008306;28;20112;-73
2023/05/03 11:17:40;;;;;;;8.13;5.60;;;;;;;14.54;58.10;99393.69;4992003;28;20026;-73
2023/05/03 11:20:08;;;;;;;24.92;10.73;;;;;;;14.62;57.92;99394.97;5009112;28;20500;-72
2023/05/03 11:22:34;;;;;;;11.48;5.90;;;;;;;14.70;58.00;99388.78;5010336;28;20536;-73
2023/05/03 11:25:00;;;;;;;16.73;8.55;;;;;;;14.81;58.53;99383.94;5009074;28;20030;-72